Terminal Aerodrome Forecast
Issued by NWS

Home | Current Version | Previous Version | Text Only | Print | Product List | Glossary On
Versions: 1 2 3 4 5 6 7 8 9 10 11 12 13 14 15
000
FTUS44 KBMX 261100
TAFANB
TAF
KANB 261130Z 2612/2712 00000KT P6SM FEW007 SCT250
     FM261400 10004KT P6SM BKN250
     FM270000 00000KT P6SM BKN180
     FM270600 00000KT P6SM BKN070=

USA.gov is the U.S. government's official web portal to all federal, state and local government web resources and services.